Chesnee, South Carolina
Current Conditions -  °F | °C
As of 7:55 PM on Friday 28 Nov 2014 (Local Time) from KEHO Reporting Station
Clear Clear  
Wind Chill:   Ceiling: Unl
Heat Index:   Visibility: 10mi
Dew Point: -6°   Wind: 0mph
Humidity: 52%   Direction: NA
Pressure: 30.28"   Gusts: NA
Location:  35.15°N, 81.86°W
Report Text: KEHO 290055Z AUTO 00000KT 10SM CLR 03/M06 A3028 RMK AO2 T00261063
Loading
Personal Weather Stations






























Interactive Weather Map New forecast layout! Learn more

10-Day Weather Forecast

Advertisements
Track Severe Weather on mobile